createdAt,value
2023-03-31T00:01:11.071Z,74.39
2023-03-31T00:03:43.788Z,74.14
2023-03-31T00:06:18.217Z,75.20
2023-03-31T00:08:51.586Z,75.58
2023-03-31T00:11:21.380Z,75.63
2023-03-31T00:13:49.812Z,75.80
2023-03-31T00:16:17.960Z,74.90
2023-03-31T00:18:47.627Z,75.26
2023-03-31T00:21:29.415Z,75.06
2023-03-31T00:24:00.603Z,75.63
2023-03-31T00:26:29.377Z,75.57
2023-03-31T00:28:58.888Z,75.34
2023-03-31T00:31:28.131Z,76.14
2023-03-31T00:33:56.825Z,75.05
2023-03-31T00:36:28.321Z,75.88
2023-03-31T00:38:59.690Z,76.12
2023-03-31T00:41:28.495Z,76.65
2023-03-31T00:44:13.980Z,76.59
2023-03-31T00:46:48.228Z,77.02
2023-03-31T00:49:26.387Z,77.36
2023-03-31T00:52:02.243Z,78.04
2023-03-31T00:54:33.846Z,78.12
2023-03-31T00:57:06.713Z,77.86
2023-03-31T00:59:41.750Z,77.67
2023-03-31T01:02:11.245Z,78.04
2023-03-31T01:04:47.092Z,76.63
2023-03-31T01:07:25.654Z,77.09
2023-03-31T01:10:00.271Z,77.80
2023-03-31T01:12:29.344Z,78.41
2023-03-31T01:14:57.816Z,78.08
2023-03-31T01:17:28.380Z,78.78
2023-03-31T01:20:13.838Z,78.62
2023-03-31T01:23:37.960Z,78.84
2023-03-31T01:26:54.687Z,79.26
2023-03-31T01:30:04.005Z,79.61
2023-03-31T01:33:24.722Z,80.37
2023-03-31T01:36:51.428Z,80.31
2023-03-31T01:40:08.469Z,79.72
2023-03-31T01:42:40.300Z,80.10
2023-03-31T01:45:27.335Z,80.83
2023-03-31T01:48:03.009Z,81.28
2023-03-31T01:50:37.600Z,80.62
2023-03-31T01:53:16.757Z,80.66
2023-03-31T01:55:54.966Z,81.87
2023-03-31T01:58:32.185Z,81.78
2023-03-31T02:01:07.539Z,82.54
2023-03-31T02:03:43.270Z,81.93
2023-03-31T02:06:17.818Z,82.12
2023-03-31T02:08:53.766Z,82.63
2023-03-31T02:11:24.517Z,82.01
2023-03-31T02:13:57.395Z,81.24
2023-03-31T02:16:32.252Z,81.33
2023-03-31T02:19:06.593Z,80.75
2023-03-31T02:21:40.141Z,80.07
2023-03-31T02:24:14.377Z,80.48
2023-03-31T02:26:53.164Z,81.06
2023-03-31T02:29:22.185Z,80.60
2023-03-31T02:31:59.280Z,79.93
2023-03-31T02:34:27.535Z,78.29
2023-03-31T02:36:56.118Z,77.97
2023-03-31T02:39:29.138Z,77.97
2023-03-31T02:41:58.750Z,76.77
2023-03-31T02:44:27.932Z,77.73
2023-03-31T02:46:56.254Z,77.02
2023-03-31T02:49:24.387Z,77.16
2023-03-31T02:52:29.279Z,77.01
2023-03-31T02:55:24.177Z,77.65
2023-03-31T02:58:22.030Z,77.08
2023-03-31T03:01:09.073Z,76.86
2023-03-31T03:03:54.210Z,77.44
2023-03-31T03:06:40.410Z,76.97
2023-03-31T03:09:33.216Z,77.04
2023-03-31T03:12:13.117Z,77.00
2023-03-31T03:14:49.540Z,76.63
2023-03-31T03:17:25.996Z,75.72
2023-03-31T03:19:57.509Z,74.76
2023-03-31T03:22:25.760Z,76.21
2023-03-31T03:24:54.311Z,77.25
2023-03-31T03:27:23.797Z,77.82
2023-03-31T03:29:53.498Z,77.72
2023-03-31T03:32:21.728Z,78.22
2023-03-31T03:34:49.811Z,77.06
2023-03-31T03:37:17.982Z,78.31
2023-03-31T03:39:46.148Z,78.25
2023-03-31T03:42:14.375Z,77.56
2023-03-31T03:44:42.517Z,78.32
2023-03-31T03:47:11.993Z,78.92
2023-03-31T03:49:40.116Z,79.29
2023-03-31T03:52:09.166Z,79.58
2023-03-31T03:54:37.316Z,79.58
2023-03-31T03:57:06.680Z,78.57
2023-03-31T03:59:34.921Z,79.10
2023-03-31T04:02:03.082Z,78.56
2023-03-31T04:04:32.634Z,79.01
2023-03-31T04:07:00.778Z,79.34
2023-03-31T04:09:29.470Z,79.05
2023-03-31T04:11:57.617Z,79.05
2023-03-31T04:14:25.983Z,78.66
2023-03-31T04:16:56.344Z,78.27
2023-03-31T04:19:25.881Z,78.95
2023-03-31T04:22:02.622Z,77.81
2023-03-31T04:24:33.021Z,76.77
2023-03-31T04:27:02.781Z,76.79
2023-03-31T04:29:33.615Z,77.42
2023-03-31T04:32:02.777Z,76.63
2023-03-31T04:34:35.882Z,75.69
2023-03-31T04:37:06.045Z,75.21
2023-03-31T04:39:34.219Z,75.35
2023-03-31T04:42:02.762Z,75.92
2023-03-31T04:44:31.363Z,74.32
2023-03-31T04:47:02.826Z,74.73
2023-03-31T04:49:33.433Z,74.20
2023-03-31T04:52:01.680Z,75.29
2023-03-31T04:54:31.129Z,75.80
2023-03-31T04:56:59.301Z,75.89
2023-03-31T04:59:27.459Z,76.06
2023-03-31T05:01:55.853Z,76.14
2023-03-31T05:04:24.203Z,75.91
2023-03-31T05:06:52.370Z,76.72
2023-03-31T05:09:22.024Z,76.54
2023-03-31T05:11:51.659Z,76.90
2023-03-31T05:14:20.797Z,76.26
2023-03-31T05:16:49.134Z,75.68
2023-03-31T05:19:18.274Z,75.30
2023-03-31T05:21:46.686Z,75.52
2023-03-31T05:24:15.298Z,74.49
2023-03-31T05:26:48.007Z,74.57
2023-03-31T05:29:17.570Z,74.42
2023-03-31T05:31:46.127Z,75.76
2023-03-31T05:34:14.531Z,75.33
2023-03-31T05:36:43.527Z,75.72
2023-03-31T05:39:11.673Z,76.17
2023-03-31T05:41:39.793Z,75.68
2023-03-31T05:44:07.943Z,76.18
2023-03-31T05:46:37.516Z,76.51
2023-03-31T05:49:06.403Z,75.72
2023-03-31T05:51:34.675Z,75.84
2023-03-31T05:54:02.852Z,74.87
2023-03-31T05:56:30.978Z,74.71
2023-03-31T05:59:01.259Z,74.38
2023-03-31T06:01:30.201Z,73.30
2023-03-31T06:03:59.777Z,73.15
2023-03-31T06:06:28.191Z,72.81
2023-03-31T06:08:56.339Z,72.80
2023-03-31T06:11:24.515Z,73.17
2023-03-31T06:13:53.138Z,73.09
2023-03-31T06:16:21.412Z,72.94
2023-03-31T06:18:53.614Z,72.37
2023-03-31T06:21:23.091Z,72.69
2023-03-31T06:23:55.101Z,72.55
2023-03-31T06:26:23.718Z,72.66
2023-03-31T06:28:51.971Z,72.85
2023-03-31T06:31:23.599Z,72.90
2023-03-31T06:33:52.324Z,72.99
2023-03-31T06:36:23.259Z,73.04
2023-03-31T06:38:52.409Z,73.12
2023-03-31T06:41:22.240Z,73.45
2023-03-31T06:43:50.943Z,74.29
2023-03-31T06:46:19.645Z,74.43
2023-03-31T06:48:47.857Z,75.42
2023-03-31T06:51:16.383Z,74.75
2023-03-31T06:53:45.881Z,73.97
2023-03-31T06:56:14.391Z,73.99
2023-03-31T06:58:42.462Z,74.06
2023-03-31T07:01:11.830Z,73.95
2023-03-31T07:03:40.331Z,73.36
2023-03-31T07:06:09.172Z,73.17
2023-03-31T07:08:37.480Z,73.02
2023-03-31T07:11:07.314Z,71.98
2023-03-31T07:13:35.815Z,71.43
2023-03-31T07:16:05.209Z,70.92
2023-03-31T07:18:35.510Z,71.36
2023-03-31T07:21:08.123Z,69.76
2023-03-31T07:23:37.902Z,70.19
2023-03-31T07:26:07.876Z,69.78
2023-03-31T07:28:36.242Z,69.94
2023-03-31T07:31:04.762Z,69.93
2023-03-31T07:33:33.004Z,70.50
2023-03-31T07:36:12.774Z,70.05
2023-03-31T07:38:42.540Z,70.78
2023-03-31T07:41:14.990Z,70.48
2023-03-31T07:43:43.237Z,68.86
2023-03-31T07:46:18.289Z,68.99
2023-03-31T07:48:47.711Z,68.71
2023-03-31T07:51:17.666Z,67.69
2023-03-31T07:53:46.834Z,67.08
2023-03-31T07:56:17.952Z,67.37
2023-03-31T07:58:48.122Z,66.92
2023-03-31T08:01:18.892Z,67.42
2023-03-31T08:03:49.001Z,67.28
2023-03-31T08:06:20.973Z,66.72
2023-03-31T08:08:49.213Z,66.75
2023-03-31T08:11:21.154Z,66.14
2023-03-31T08:13:49.761Z,65.60
2023-03-31T08:16:18.356Z,65.09
2023-03-31T08:18:46.502Z,64.83
2023-03-31T08:21:14.719Z,64.30
2023-03-31T08:23:42.909Z,63.96
2023-03-31T08:26:17.344Z,63.24
2023-03-31T08:28:48.728Z,62.41
2023-03-31T08:31:18.613Z,62.37
2023-03-31T08:33:46.976Z,61.74
2023-03-31T08:36:15.699Z,62.30
2023-03-31T08:38:47.268Z,61.24
2023-03-31T08:41:48.271Z,61.53
2023-03-31T08:44:24.170Z,64.22
2023-03-31T08:46:56.200Z,66.46
2023-03-31T08:49:27.762Z,68.83
2023-03-31T08:52:02.286Z,70.08
2023-03-31T08:54:35.627Z,71.22
2023-03-31T08:57:13.289Z,72.91
2023-03-31T08:59:44.226Z,73.85
2023-03-31T09:02:26.868Z,74.67
2023-03-31T09:05:49.051Z,74.80
2023-03-31T09:08:37.091Z,75.38
2023-03-31T09:11:15.081Z,75.97
2023-03-31T09:14:22.419Z,75.09
2023-03-31T09:17:06.963Z,75.68
2023-03-31T09:19:42.427Z,74.37
2023-03-31T09:22:19.376Z,74.72
2023-03-31T09:24:57.069Z,75.05
2023-03-31T09:27:31.230Z,76.09
2023-03-31T09:30:06.953Z,75.78
2023-03-31T09:32:40.833Z,75.43
2023-03-31T09:35:21.463Z,74.88
2023-03-31T09:37:50.637Z,75.23
2023-03-31T09:40:22.567Z,74.51
2023-03-31T09:42:59.074Z,74.94
2023-03-31T09:45:27.768Z,75.23
2023-03-31T09:48:02.054Z,75.47
2023-03-31T09:50:33.633Z,75.78
2023-03-31T09:53:06.745Z,76.91
2023-03-31T09:55:47.624Z,76.54
2023-03-31T09:58:18.333Z,76.65
2023-03-31T10:01:01.830Z,76.66
2023-03-31T10:03:36.630Z,77.79
2023-03-31T10:06:11.715Z,77.24
2023-03-31T10:08:43.514Z,77.95
2023-03-31T10:11:13.906Z,77.11
2023-03-31T10:13:48.800Z,77.84
2023-03-31T10:16:24.862Z,78.22
2023-03-31T10:18:54.497Z,79.08
2023-03-31T10:21:26.115Z,78.59
2023-03-31T10:23:56.266Z,79.08
2023-03-31T10:26:28.999Z,79.70
2023-03-31T10:28:57.631Z,80.12
2023-03-31T10:31:35.142Z,79.89
2023-03-31T10:34:11.629Z,80.34
2023-03-31T10:36:47.079Z,80.68
2023-03-31T10:39:17.957Z,81.20
2023-03-31T10:41:52.946Z,81.86
2023-03-31T10:44:36.537Z,82.29
2023-03-31T10:47:20.560Z,81.55
2023-03-31T10:49:58.271Z,82.44
2023-03-31T10:52:28.562Z,82.71
2023-03-31T10:55:01.068Z,83.00
2023-03-31T10:57:45.275Z,83.34
2023-03-31T11:00:28.734Z,83.23
2023-03-31T11:03:43.350Z,83.26
2023-03-31T11:06:23.592Z,83.37
2023-03-31T11:09:08.804Z,84.21
2023-03-31T11:11:59.197Z,85.14
2023-03-31T11:14:41.602Z,85.20
2023-03-31T11:17:28.471Z,84.05
2023-03-31T11:20:13.940Z,84.39
2023-03-31T11:22:55.845Z,83.97
2023-03-31T11:25:36.187Z,84.64
2023-03-31T11:28:27.122Z,85.66
2023-03-31T11:31:10.762Z,84.39
2023-03-31T11:34:19.844Z,85.67
2023-03-31T11:37:49.557Z,84.88
2023-03-31T11:40:47.136Z,84.55
2023-03-31T11:43:28.300Z,85.10
2023-03-31T11:46:04.570Z,85.17
2023-03-31T11:48:46.015Z,86.10
2023-03-31T11:51:22.795Z,86.15
2023-03-31T11:53:56.611Z,85.60
2023-03-31T11:56:29.701Z,84.83
2023-03-31T11:59:04.375Z,85.66
2023-03-31T12:01:45.067Z,85.79
2023-03-31T12:04:29.320Z,85.80
2023-03-31T12:07:06.116Z,84.97
2023-03-31T12:09:48.799Z,85.98
2023-03-31T12:12:23.871Z,86.25
2023-03-31T12:15:01.997Z,86.22
2023-03-31T12:17:30.506Z,84.87
2023-03-31T12:20:08.959Z,85.43
2023-03-31T12:22:44.164Z,84.79
2023-03-31T12:25:17.664Z,84.68
2023-03-31T12:27:49.461Z,83.24
2023-03-31T12:30:37.410Z,83.52
2023-03-31T12:33:16.275Z,83.37
2023-03-31T12:36:06.173Z,82.48
2023-03-31T12:38:51.784Z,82.35
2023-03-31T12:41:31.527Z,80.99
2023-03-31T12:44:36.676Z,80.16
2023-03-31T12:47:35.914Z,81.22
2023-03-31T12:50:26.986Z,79.35
2023-03-31T12:53:06.191Z,80.14
2023-03-31T12:55:46.704Z,81.03
2023-03-31T12:58:45.319Z,80.72
2023-03-31T13:01:17.162Z,79.61
2023-03-31T13:04:11.078Z,78.16
2023-03-31T13:06:59.563Z,76.15
2023-03-31T13:09:52.884Z,72.75
2023-03-31T13:12:25.586Z,70.58
2023-03-31T13:15:00.005Z,68.31
2023-03-31T13:17:33.331Z,67.36
2023-03-31T13:20:31.457Z,68.89
2023-03-31T13:23:07.883Z,67.61
2023-03-31T13:25:46.466Z,68.31
2023-03-31T13:28:35.524Z,68.36
2023-03-31T13:31:07.470Z,67.78
2023-03-31T13:33:57.767Z,64.27
2023-03-31T13:36:55.498Z,62.89
2023-03-31T13:40:19.392Z,62.63
2023-03-31T13:43:47.157Z,63.19
2023-03-31T13:46:51.014Z,64.08
2023-03-31T13:49:54.128Z,62.82
2023-03-31T13:52:40.306Z,62.22
2023-03-31T13:55:29.868Z,64.50
2023-03-31T13:58:34.119Z,63.60
2023-03-31T14:01:37.106Z,64.06
2023-03-31T14:04:26.646Z,65.28
2023-03-31T14:07:03.000Z,64.40
2023-03-31T14:09:41.166Z,65.35
2023-03-31T14:12:23.872Z,64.19
2023-03-31T14:14:55.488Z,64.18
2023-03-31T14:17:29.470Z,64.99
2023-03-31T14:20:27.447Z,65.86
2023-03-31T14:23:11.901Z,67.49
2023-03-31T14:25:54.278Z,68.79
2023-03-31T14:28:46.826Z,69.80
2023-03-31T14:31:25.424Z,70.48
2023-03-31T14:34:25.027Z,70.38
2023-03-31T14:37:01.637Z,70.93
2023-03-31T14:39:36.093Z,72.00
2023-03-31T14:42:11.817Z,73.72
2023-03-31T14:44:41.048Z,74.26
2023-03-31T14:47:15.901Z,76.58
2023-03-31T14:49:45.420Z,78.20
2023-03-31T14:52:19.259Z,78.68
2023-03-31T14:54:48.327Z,79.82
2023-03-31T14:57:21.648Z,80.86
2023-03-31T14:59:54.624Z,81.79
2023-03-31T15:02:33.729Z,81.66
2023-03-31T15:05:08.210Z,81.06
2023-03-31T15:07:37.291Z,80.03
2023-03-31T15:10:08.535Z,80.60
2023-03-31T15:12:38.221Z,80.29
2023-03-31T15:15:09.183Z,81.01
2023-03-31T15:17:42.275Z,80.22
2023-03-31T15:20:31.082Z,81.05
2023-03-31T15:23:01.324Z,81.34
2023-03-31T15:25:35.300Z,81.45
2023-03-31T15:28:08.386Z,79.97
2023-03-31T15:30:37.900Z,80.18
2023-03-31T15:33:18.860Z,79.91
2023-03-31T15:35:49.889Z,78.31
2023-03-31T15:38:19.221Z,77.47
2023-03-31T15:40:54.750Z,78.18
2023-03-31T15:43:32.221Z,77.65
2023-03-31T15:46:01.990Z,77.00
2023-03-31T15:48:34.197Z,76.18
2023-03-31T15:51:08.627Z,75.79
2023-03-31T15:53:39.907Z,76.11
2023-03-31T15:56:08.264Z,76.93
2023-03-31T15:59:05.254Z,76.31
2023-03-31T16:01:38.710Z,74.42
2023-03-31T16:04:11.278Z,74.38
2023-03-31T16:06:47.516Z,72.76
2023-03-31T16:09:23.911Z,73.91
2023-03-31T16:11:57.478Z,74.99
2023-03-31T16:14:31.054Z,74.87
2023-03-31T16:17:06.218Z,76.19
2023-03-31T16:19:43.979Z,76.12
2023-03-31T16:22:20.212Z,75.54
2023-03-31T16:24:48.619Z,76.05
2023-03-31T16:27:16.721Z,76.30
2023-03-31T16:29:44.825Z,75.82
2023-03-31T16:32:16.104Z,76.39
2023-03-31T16:34:56.647Z,75.63
2023-03-31T16:37:26.849Z,74.91
2023-03-31T16:39:55.897Z,75.05
2023-03-31T16:42:24.504Z,76.11
2023-03-31T16:45:09.697Z,75.54
2023-03-31T16:47:43.674Z,75.05
2023-03-31T16:50:15.275Z,74.69
2023-03-31T16:52:45.324Z,75.19
2023-03-31T16:55:13.503Z,74.85
2023-03-31T16:57:41.595Z,75.45
2023-03-31T17:00:12.864Z,76.41
2023-03-31T17:02:41.386Z,76.26
2023-03-31T17:05:13.166Z,76.14
2023-03-31T17:07:41.636Z,76.55
2023-03-31T17:10:12.671Z,76.86
2023-03-31T17:12:41.197Z,76.75
2023-03-31T17:15:11.818Z,76.21
2023-03-31T17:17:40.344Z,76.90
2023-03-31T17:20:10.629Z,77.60
2023-03-31T17:22:38.963Z,78.22
2023-03-31T17:25:08.003Z,78.13
2023-03-31T17:27:38.708Z,78.67
2023-03-31T17:30:09.725Z,79.61
2023-03-31T17:32:38.151Z,79.81
2023-03-31T17:35:08.082Z,80.09
2023-03-31T17:37:36.147Z,80.22
2023-03-31T17:40:05.865Z,79.79
2023-03-31T17:42:33.932Z,80.18
2023-03-31T17:45:03.356Z,80.53
2023-03-31T17:47:32.973Z,80.86
2023-03-31T17:50:01.062Z,80.88
2023-03-31T17:52:29.424Z,80.94
2023-03-31T17:54:58.316Z,81.04
2023-03-31T17:57:27.267Z,80.62
2023-03-31T17:59:55.648Z,80.80
2023-03-31T18:02:25.728Z,80.16
2023-03-31T18:04:54.606Z,80.51
2023-03-31T18:07:23.819Z,79.72
2023-03-31T18:09:51.940Z,77.28
2023-03-31T18:12:20.016Z,78.16
2023-03-31T18:14:48.091Z,79.38
2023-03-31T18:17:16.130Z,80.62
2023-03-31T18:19:45.671Z,81.54
2023-03-31T18:22:13.732Z,82.02
2023-03-31T18:24:41.784Z,82.69
2023-03-31T18:27:09.850Z,82.60
2023-03-31T18:29:39.311Z,82.72
2023-03-31T18:32:07.725Z,81.42
2023-03-31T18:34:36.678Z,81.15
2023-03-31T18:37:06.345Z,82.21
2023-03-31T18:39:34.870Z,82.04
2023-03-31T18:42:03.013Z,82.97
2023-03-31T18:44:31.331Z,82.97
2023-03-31T18:46:59.478Z,82.48
2023-03-31T18:49:27.730Z,82.47
2023-03-31T18:51:56.348Z,81.37
2023-03-31T18:54:26.027Z,81.10
2023-03-31T18:56:54.107Z,81.92
2023-03-31T18:59:22.708Z,81.43
2023-03-31T19:01:50.752Z,81.61
2023-03-31T19:04:18.800Z,82.07
2023-03-31T19:06:46.945Z,82.92
2023-03-31T19:09:14.970Z,83.64
2023-03-31T19:11:44.356Z,84.04
2023-03-31T19:14:12.414Z,84.54
2023-03-31T19:16:42.474Z,84.77
2023-03-31T19:19:10.968Z,85.31
2023-03-31T19:21:39.200Z,85.41
2023-03-31T19:24:07.694Z,85.47
2023-03-31T19:26:35.977Z,84.92
2023-03-31T19:29:06.121Z,85.07
2023-03-31T19:31:38.221Z,84.88
2023-03-31T19:34:07.203Z,85.52
2023-03-31T19:36:35.421Z,84.98
2023-03-31T19:39:04.443Z,85.31
2023-03-31T19:41:32.450Z,85.26
2023-03-31T19:44:00.529Z,84.42
2023-03-31T19:46:30.595Z,85.29
2023-03-31T19:48:58.806Z,86.04
2023-03-31T19:51:27.522Z,86.29
2023-03-31T19:53:56.798Z,86.45
2023-03-31T19:56:27.015Z,86.41
2023-03-31T19:58:55.277Z,86.09
2023-03-31T20:01:27.145Z,86.16
2023-03-31T20:03:57.368Z,85.87
2023-03-31T20:06:28.129Z,84.69
2023-03-31T20:08:58.653Z,84.60
2023-03-31T20:11:28.869Z,84.07
2023-03-31T20:13:57.694Z,84.06
2023-03-31T20:16:29.144Z,83.75
2023-03-31T20:19:01.998Z,84.19
2023-03-31T20:21:32.855Z,83.61
2023-03-31T20:24:01.228Z,83.79
2023-03-31T20:26:32.480Z,82.83
2023-03-31T20:29:03.942Z,82.99
2023-03-31T20:31:36.527Z,82.36
2023-03-31T20:34:08.419Z,82.14
2023-03-31T20:36:36.611Z,81.93
2023-03-31T20:39:06.083Z,81.93
2023-03-31T20:41:37.027Z,81.62
2023-03-31T20:44:07.472Z,82.69
2023-03-31T20:46:35.701Z,83.08
2023-03-31T20:49:07.070Z,83.83
2023-03-31T20:51:38.575Z,82.27
2023-03-31T20:54:08.355Z,82.37
2023-03-31T20:56:39.396Z,82.33
2023-03-31T20:59:10.791Z,82.55
2023-03-31T21:01:39.840Z,82.62
2023-03-31T21:04:11.712Z,83.10
2023-03-31T21:06:42.459Z,81.98
2023-03-31T21:09:11.584Z,81.86
2023-03-31T21:11:41.359Z,82.79
2023-03-31T21:14:13.804Z,82.11
2023-03-31T21:16:41.958Z,82.63
2023-03-31T21:19:12.329Z,81.96
2023-03-31T21:21:41.281Z,82.55
2023-03-31T21:24:12.532Z,82.95
2023-03-31T21:26:41.619Z,82.74
2023-03-31T21:29:10.160Z,83.11
2023-03-31T21:31:38.750Z,82.53
2023-03-31T21:34:06.926Z,82.28
2023-03-31T21:36:36.590Z,81.53
2023-03-31T21:39:05.294Z,81.61
2023-03-31T21:41:33.626Z,81.88
2023-03-31T21:44:03.112Z,81.47
2023-03-31T21:46:33.950Z,81.63
2023-03-31T21:49:03.525Z,82.07
2023-03-31T21:51:32.070Z,83.07
2023-03-31T21:54:01.837Z,82.52
2023-03-31T21:56:32.273Z,82.63
2023-03-31T21:59:01.005Z,81.82
2023-03-31T22:01:29.432Z,81.86
2023-03-31T22:03:57.920Z,82.26
2023-03-31T22:06:26.495Z,82.18
2023-03-31T22:08:54.611Z,82.09
2023-03-31T22:11:24.337Z,81.96
2023-03-31T22:13:52.553Z,81.56
2023-03-31T22:16:23.174Z,80.91
2023-03-31T22:18:52.886Z,81.22
2023-03-31T22:21:24.554Z,81.61
2023-03-31T22:23:53.292Z,82.23
2023-03-31T22:26:23.411Z,82.57
2023-03-31T22:28:51.870Z,82.63
2023-03-31T22:31:20.605Z,82.07
2023-03-31T22:33:49.486Z,82.51
2023-03-31T22:36:17.626Z,82.57
2023-03-31T22:38:45.866Z,83.51
2023-03-31T22:41:14.016Z,83.44
2023-03-31T22:43:45.840Z,82.40
2023-03-31T22:46:14.862Z,82.12
2023-03-31T22:48:42.991Z,82.97
2023-03-31T22:51:11.938Z,83.80
2023-03-31T22:53:40.372Z,84.48
2023-03-31T22:56:12.570Z,84.87
2023-03-31T22:58:40.797Z,84.61
2023-03-31T23:01:15.660Z,85.17
2023-03-31T23:03:44.653Z,83.90
2023-03-31T23:06:14.341Z,85.04
2023-03-31T23:08:44.732Z,85.55
2023-03-31T23:11:14.150Z,85.20
2023-03-31T23:13:42.721Z,85.27
2023-03-31T23:16:19.063Z,85.47
2023-03-31T23:18:48.539Z,85.88
2023-03-31T23:21:20.038Z,86.48
2023-03-31T23:23:50.119Z,86.78
2023-03-31T23:26:20.037Z,86.70
2023-03-31T23:28:50.296Z,86.73
2023-03-31T23:31:22.752Z,87.06
2023-03-31T23:33:51.263Z,86.66
2023-03-31T23:36:21.337Z,87.05
2023-03-31T23:38:52.196Z,86.99
2023-03-31T23:41:22.709Z,87.30
2023-03-31T23:43:51.742Z,87.81
2023-03-31T23:46:21.630Z,88.26
2023-03-31T23:48:50.015Z,88.75
2023-03-31T23:51:18.887Z,89.57
2023-03-31T23:53:47.412Z,89.33
2023-03-31T23:56:16.055Z,89.92
2023-03-31T23:58:45.019Z,89.77
